Time;durP1;ratioP1;P1;durP2;ratioP2;P2;SDS_P1;SDS_P2;PMS_P1;PMS_P2;Temp;Humidity;BMP_temperature;BMP_pressure;BME280_temperature;BME280_humidity;BME280_pressure;Samples;Min_cycle;Max_cycle;Signal;HPM_P1;HPM_P2
2021/12/14 00:01:34;;;;;;;8.83;7.90;;;;;;;9.58;63.27;102077.47;1627987;87;21581;-55
2021/12/14 00:04:19;;;;;;;9.20;7.78;;;;;;;9.52;63.16;102073.55;1622669;87;21028;-55
2021/12/14 00:06:48;;;;;;;9.60;8.15;;;;;;;9.51;62.95;102080.93;1621288;87;21078;-56
2021/12/14 00:09:24;;;;;;;9.28;7.87;;;;;;;9.53;62.83;102085.70;1630019;88;21931;-55
2021/12/14 00:15:01;;;;;;;7.75;6.87;;;;;;;9.60;62.44;102084.84;1621146;87;21107;-55
2021/12/14 00:16:57;;;;;;;8.18;6.70;;;;;;;9.61;62.30;102086.59;1597977;88;21075;-55
2021/12/14 00:19:25;;;;;;;7.58;6.78;;;;;;;9.65;62.12;102090.06;1586364;89;21087;-55
2021/12/14 00:21:54;;;;;;;8.35;7.50;;;;;;;9.68;61.78;102090.95;1577608;90;21078;-55
2021/12/14 00:24:25;;;;;;;8.53;7.22;;;;;;;9.70;61.36;102095.73;1583473;89;21702;-55
2021/12/14 00:26:56;;;;;;;10.75;8.35;;;;;;;9.75;61.37;102100.49;1579619;89;21133;-55
2021/12/14 00:29:30;;;;;;;8.35;7.33;;;;;;;9.79;61.27;102098.34;1581532;89;21104;-55
2021/12/14 00:32:02;;;;;;;9.43;7.58;;;;;;;9.82;61.19;102098.36;1622329;87;21128;-55
2021/12/14 00:37:11;;;;;;;8.28;7.30;;;;;;;9.87;60.73;102098.80;1586443;89;21120;-55
2021/12/14 00:39:38;;;;;;;8.95;7.55;;;;;;;9.87;60.53;102094.91;1586778;89;21098;-55
2021/12/14 00:42:05;;;;;;;9.33;8.23;;;;;;;9.86;60.50;102104.42;1590513;89;21033;-55
2021/12/14 00:44:33;;;;;;;10.40;8.30;;;;;;;9.87;60.44;102110.50;1591373;89;21102;-55
2021/12/14 00:47:00;;;;;;;10.35;8.70;;;;;;;9.86;60.26;102101.83;1591278;89;21102;-55
2021/12/14 00:49:27;;;;;;;9.58;8.03;;;;;;;9.88;60.16;102104.00;1604782;84;21173;-54
2021/12/14 00:51:54;;;;;;;8.68;7.87;;;;;;;9.88;60.05;102105.30;1693649;84;21049;-54
2021/12/14 00:54:21;;;;;;;8.43;7.03;;;;;;;9.88;60.16;102104.42;1693760;85;21054;-55
2021/12/14 00:56:49;;;;;;;7.97;6.70;;;;;;;9.87;59.88;102108.75;1694267;85;21044;-54
2021/12/14 00:59:18;;;;;;;7.90;6.83;;;;;;;9.88;59.65;102112.22;1693897;85;21488;-54
2021/12/14 01:01:54;;;;;;;7.22;6.45;;;;;;;9.84;59.64;102119.16;1669205;85;21586;-54
2021/12/14 01:04:31;;;;;;;6.90;6.20;;;;;;;9.86;59.90;102120.03;1693807;85;21024;-54
2021/12/14 01:06:58;;;;;;;7.78;6.42;;;;;;;9.88;59.65;102125.22;1694074;85;20989;-55
2021/12/14 01:09:32;;;;;;;7.50;6.33;;;;;;;9.87;59.44;102126.10;1693575;85;21032;-55
2021/12/14 01:12:06;;;;;;;6.90;6.10;;;;;;;9.83;59.32;102131.27;1693921;85;21040;-55
2021/12/14 01:14:44;;;;;;;6.42;5.42;;;;;;;9.82;59.41;102126.95;1690163;85;21040;-55
2021/12/14 01:17:25;;;;;;;6.42;5.67;;;;;;;9.84;59.32;102133.45;1690029;85;20988;-55
2021/12/14 01:19:49;;;;;;;7.53;5.90;;;;;;;9.88;59.75;102131.72;1690896;85;21020;-55
2021/12/14 01:27:34;;;;;;;7.60;6.05;;;;;;;9.94;59.33;102130.44;1694284;85;21060;-55
2021/12/14 01:30:13;;;;;;;6.37;5.47;;;;;;;9.93;58.90;102132.62;1692070;85;21056;-55
2021/12/14 01:32:43;;;;;;;8.33;6.15;;;;;;;9.88;58.65;102133.02;1542167;90;21105;-54
2021/12/14 01:35:13;;;;;;;7.65;6.10;;;;;;;9.85;58.47;102134.75;1555525;91;21624;-55
2021/12/14 01:37:43;;;;;;;7.85;6.65;;;;;;;9.84;58.76;102135.63;1559424;91;21046;-55
2021/12/14 01:40:17;;;;;;;7.62;6.15;;;;;;;9.87;58.69;102136.50;1564143;91;21051;-55
2021/12/14 01:42:41;;;;;;;;;;;;;;;9.90;58.78;102139.97;1556186;90;21141;-54
2021/12/14 01:45:17;;;;;;;7.45;6.12;;;;;;;9.92;58.69;102138.66;1566719;90;20138;-54
2021/12/14 01:47:54;;;;;;;6.53;5.72;;;;;;;9.89;58.16;102130.45;1467561;96;21229;-54
2021/12/14 01:50:29;;;;;;;6.35;4.85;;;;;;;9.83;57.95;102133.88;1389734;102;21169;-54
2021/12/14 01:53:04;;;;;;;5.42;4.12;;;;;;;9.77;57.70;102129.96;1380379;102;21250;-54
2021/12/14 01:55:35;;;;;;;5.05;4.33;;;;;;;9.77;57.87;102133.86;1385938;101;21124;-55
2021/12/14 01:58:05;;;;;;;5.30;4.12;;;;;;;9.76;57.60;102141.23;1392018;102;21609;-54
2021/12/14 02:00:52;;;;;;;5.20;4.10;;;;;;;9.77;57.77;102133.86;1384114;102;21156;-54
2021/12/14 02:03:20;;;;;;;5.45;4.00;;;;;;;9.78;57.26;102153.80;1384453;102;22005;-54
2021/12/14 02:05:50;;;;;;;6.03;4.90;;;;;;;9.75;56.93;102155.08;1386106;102;21159;-54
2021/12/14 02:08:32;;;;;;;4.53;4.10;;;;;;;9.73;57.39;102147.70;1386125;102;21188;-55
2021/12/14 02:11:00;;;;;;;6.22;5.17;;;;;;;9.74;57.13;102152.48;1384814;102;21200;-54
2021/12/14 02:13:34;;;;;;;6.70;4.65;;;;;;;9.72;57.46;102140.79;1385771;102;21133;-55
2021/12/14 02:16:01;;;;;;;6.30;5.17;;;;;;;9.71;57.75;102136.44;1382012;102;21184;-55
2021/12/14 02:18:29;;;;;;;5.20;4.70;;;;;;;9.72;57.59;102140.79;1385003;102;21148;-55
2021/12/14 02:21:07;;;;;;;5.72;4.45;;;;;;;9.72;57.79;102136.89;1385531;102;21169;-54
2021/12/14 02:23:37;;;;;;;5.28;4.75;;;;;;;9.73;57.79;102150.30;1385573;102;21168;-55
2021/12/14 02:26:08;;;;;;;6.75;5.20;;;;;;;9.74;57.51;102150.77;1384776;102;21638;-55
2021/12/14 02:28:35;;;;;;;7.78;5.83;;;;;;;9.75;57.65;102151.18;1428932;94;21199;-55
2021/12/14 02:31:02;;;;;;;6.60;5.90;;;;;;;9.75;57.55;102152.48;1563737;90;21121;-55
2021/12/14 02:33:35;;;;;;;7.15;6.12;;;;;;;9.76;57.33;102152.05;1586965;89;21148;-55
2021/12/14 02:36:09;;;;;;;;;;;;;;;9.72;57.01;102158.98;1566206;90;21584;-55
2021/12/14 02:38:42;;;;;;;7.95;6.58;;;;;;;9.71;57.36;102154.63;1564325;90;20395;-54
2021/12/14 02:41:09;;;;;;;8.00;6.83;;;;;;;9.70;57.55;102147.72;1509361;94;21581;-57
2021/12/14 02:43:47;;;;;;;10.20;7.45;;;;;;;9.70;57.72;102145.11;1513505;89;21158;-55
2021/12/14 02:46:34;;;;;;;11.70;9.75;;;;;;;9.72;57.79;102142.09;1585614;88;21162;-55
2021/12/14 02:49:07;;;;;;;14.10;9.88;;;;;;;9.73;57.75;102139.91;1586581;89;21054;-54
2021/12/14 02:51:44;;;;;;;13.15;9.60;;;;;;;9.72;57.75;102137.31;1591727;89;21066;-54
2021/12/14 02:54:20;;;;;;;13.00;9.35;;;;;;;9.69;57.94;102139.46;1557796;91;21188;-55
2021/12/14 02:56:51;;;;;;;13.15;9.28;;;;;;;9.68;58.26;102138.17;1533172;92;21119;-54
2021/12/14 02:59:23;;;;;;;14.58;9.68;;;;;;;9.68;58.48;102139.05;1530120;92;21142;-54
2021/12/14 03:01:51;;;;;;;15.13;10.13;;;;;;;9.69;58.73;102140.77;1531223;91;21054;-55
2021/12/14 03:04:18;;;;;;;11.40;9.93;;;;;;;9.71;59.27;102146.84;1527603;92;21118;-55
2021/12/14 03:06:52;;;;;;;12.35;10.23;;;;;;;9.74;59.47;102152.06;1533884;92;21176;-55
2021/12/14 03:09:38;;;;;;;13.32;10.55;;;;;;;9.81;59.49;102156.40;1500313;94;21108;-55
2021/12/14 03:12:08;;;;;;;12.60;10.15;;;;;;;9.87;59.25;102158.59;1504612;94;21792;-54
2021/12/14 03:14:36;;;;;;;14.43;10.68;;;;;;;9.85;59.19;102164.64;1452036;98;21175;-55
2021/12/14 03:17:03;;;;;;;15.00;11.28;;;;;;;9.84;59.19;102165.52;1445648;98;21193;-55
2021/12/14 03:19:30;;;;;;;14.85;11.68;;;;;;;9.85;59.29;102169.84;1414122;99;21130;-55
2021/12/14 03:21:57;;;;;;;15.10;10.90;;;;;;;9.87;59.41;102171.59;1446781;96;21150;-55
2021/12/14 03:24:23;;;;;;;14.40;11.00;;;;;;;9.88;59.17;102177.22;1432118;99;21103;-55
2021/12/14 03:26:52;;;;;;;14.28;11.20;;;;;;;9.85;59.21;102176.34;1428632;99;21149;-55
2021/12/14 03:29:28;;;;;;;14.10;11.40;;;;;;;9.82;59.40;102173.75;1437329;97;21201;-55
2021/12/14 03:31:57;;;;;;;12.20;10.20;;;;;;;9.80;59.57;102174.60;1432812;97;21639;-55
2021/12/14 03:34:32;;;;;;;13.38;11.15;;;;;;;9.72;59.64;102184.98;1453937;96;21200;-55
2021/12/14 03:37:10;;;;;;;13.13;11.12;;;;;;;9.67;59.78;102180.17;1467442;95;21139;-55
2021/12/14 03:39:40;;;;;;;15.98;11.08;;;;;;;9.66;59.81;102179.75;1486024;95;21110;-55
2021/12/14 03:42:24;;;;;;;12.33;10.48;;;;;;;9.67;59.85;102176.27;1467998;96;21648;-54
2021/12/14 03:44:54;;;;;;;12.98;10.25;;;;;;;9.66;59.93;102177.16;1460098;97;21091;-55
2021/12/14 03:47:33;;;;;;;12.68;10.13;;;;;;;9.67;60.12;102176.27;1444941;98;21077;-55
2021/12/14 03:50:14;;;;;;;13.25;10.40;;;;;;;9.67;59.74;102168.48;1437943;96;21088;-55
2021/12/14 03:52:41;;;;;;;14.83;10.25;;;;;;;9.66;59.76;102166.76;1468294;96;21119;-54
2021/12/14 03:55:27;;;;;;;14.03;10.48;;;;;;;9.67;59.89;102160.68;1460956;95;21057;-55
2021/12/14 03:57:55;;;;;;;13.85;10.72;;;;;;;9.66;59.76;102153.77;1357833;104;21871;-55
2021/12/14 04:00:28;;;;;;;11.60;10.23;;;;;;;9.66;59.78;102160.27;1356632;104;21224;-55
2021/12/14 04:02:55;;;;;;;13.23;10.37;;;;;;;9.64;59.69;102162.41;1371179;104;21603;-55
2021/12/14 04:05:23;;;;;;;14.05;10.72;;;;;;;9.61;59.82;102176.25;1366114;104;21131;-55
2021/12/14 04:07:50;;;;;;;12.43;10.50;;;;;;;9.58;59.96;102183.17;1373234;103;21182;-55
2021/12/14 04:10:23;;;;;;;12.37;10.38;;;;;;;9.56;59.90;102180.54;1366633;101;21214;-56
2021/12/14 04:12:51;;;;;;;12.73;10.13;;;;;;;9.55;60.05;102178.82;1423299;99;21096;-55
2021/12/14 04:15:18;;;;;;;11.70;9.75;;;;;;;9.53;60.06;102172.75;1398655;100;21135;-55
2021/12/14 04:17:46;;;;;;;12.30;10.48;;;;;;;9.54;60.14;102177.52;1415554;99;21155;-55
2021/12/14 04:20:21;;;;;;;13.25;11.08;;;;;;;9.52;60.06;102164.50;1405922;101;21199;-55
2021/12/14 04:22:49;;;;;;;12.37;9.75;;;;;;;9.50;60.24;102170.12;1391384;102;21113;-55
2021/12/14 04:25:20;;;;;;;13.53;10.38;;;;;;;9.53;60.13;102167.55;1394637;101;21130;-54
2021/12/14 04:27:48;;;;;;;13.27;10.20;;;;;;;9.55;60.09;102164.53;1411797;101;21118;-55
2021/12/14 04:30:17;;;;;;;12.13;10.03;;;;;;;9.58;60.24;102168.42;1399287;101;21155;-55
2021/12/14 04:32:49;;;;;;;15.65;9.68;;;;;;;9.60;59.88;102174.95;1425823;99;21193;-54
2021/12/14 04:35:17;;;;;;;12.68;8.98;;;;;;;9.58;59.71;102181.42;1455972;95;21223;-55
2021/12/14 04:37:50;;;;;;;12.63;10.18;;;;;;;9.56;59.78;102184.89;1495120;95;21066;-55
2021/12/14 04:51:52;;;;;;;11.90;9.48;;;;;;;9.53;59.88;102185.73;1454168;97;21163;-55
2021/12/14 04:54:02;;;;;;;12.98;9.63;;;;;;;9.46;59.98;102184.41;1536482;89;21075;-54
2021/12/14 04:56:35;;;;;;;10.10;7.62;;;;;;;9.43;60.08;102185.25;1584163;89;21573;-54
2021/12/14 04:59:12;;;;;;;10.35;8.23;;;;;;;9.44;60.24;102187.40;1581781;90;21083;-55
2021/12/14 05:01:42;;;;;;;11.55;7.95;;;;;;;9.46;60.07;102190.91;1587330;90;21059;-54
2021/12/14 05:04:15;;;;;;;12.30;9.05;;;;;;;9.46;59.86;102202.14;1595026;89;21055;-55
2021/12/14 05:06:49;;;;;;;10.82;9.18;;;;;;;9.47;59.83;102196.52;1594475;89;21063;-55
2021/12/14 05:09:25;;;;;;;10.28;8.48;;;;;;;9.54;59.63;102192.66;1592857;89;21075;-54
2021/12/14 05:12:09;;;;;;;11.03;9.03;;;;;;;9.56;59.35;102193.53;1503448;94;21100;-54
2021/12/14 05:14:40;;;;;;;11.28;8.38;;;;;;;9.56;59.42;102203.08;1511730;93;21191;-54
2021/12/14 05:17:12;;;;;;;10.08;8.45;;;;;;;9.53;59.28;102210.42;1510163;94;21112;-54
2021/12/14 05:19:43;;;;;;;13.53;9.68;;;;;;;9.52;59.16;102212.57;1525666;93;21203;-54
2021/12/14 05:22:17;;;;;;;11.25;9.03;;;;;;;9.52;59.32;102217.77;1534269;93;21565;-54
2021/12/14 05:24:55;;;;;;;10.78;8.30;;;;;;;9.51;59.40;102213.45;1532728;92;21137;-54
2021/12/14 05:27:28;;;;;;;10.45;8.70;;;;;;;9.52;59.42;102219.06;1536031;92;21145;-55
2021/12/14 05:30:26;;;;;;;15.93;9.75;;;;;;;9.54;59.42;102219.94;1515206;93;21136;-54
2021/12/14 05:33:08;;;;;;;11.20;8.98;;;;;;;9.55;59.34;102222.99;1541256;92;21105;-54
2021/12/14 05:35:37;;;;;;;11.33;8.58;;;;;;;9.58;59.32;102219.55;1489437;96;21136;-54
2021/12/14 05:38:12;;;;;;;9.98;7.95;;;;;;;9.58;58.99;102216.95;1488504;96;21682;-54
2021/12/14 05:43:10;;;;;;;10.20;8.70;;;;;;;9.55;59.08;102213.90;1442111;98;21208;-54
2021/12/14 05:45:49;;;;;;;10.20;8.58;;;;;;;9.54;59.14;102218.64;1421184;100;21161;-54
2021/12/14 05:48:19;;;;;;;11.20;9.55;;;;;;;9.54;59.22;102223.84;1405654;101;21778;-54
2021/12/14 05:50:50;;;;;;;10.70;8.95;;;;;;;9.54;59.22;102214.75;1402643;102;21206;-55
2021/12/14 05:53:29;;;;;;;10.98;8.58;;;;;;;9.53;59.14;102211.73;1392532;102;21145;-55
2021/12/14 05:55:57;;;;;;;12.75;10.23;;;;;;;9.52;59.25;102208.67;1403144;102;21202;-54
2021/12/14 05:58:24;;;;;;;12.03;9.03;;;;;;;9.50;59.40;102205.20;1401952;102;21684;-54
2021/12/14 06:00:56;;;;;;;13.75;9.38;;;;;;;9.50;59.45;102209.55;1406472;102;21177;-54
2021/12/14 06:03:38;;;;;;;14.75;9.13;;;;;;;9.50;59.58;102209.55;1384371;103;21139;-54
2021/12/14 06:06:04;;;;;;;12.18;9.43;;;;;;;9.51;59.55;102208.25;1330931;106;21202;-55
2021/12/14 06:08:34;;;;;;;11.63;9.48;;;;;;;9.53;59.68;102215.63;1353517;104;21136;-55
2021/12/14 06:11:02;;;;;;;11.53;9.83;;;;;;;9.56;59.52;102209.13;1312694;109;21132;-55
2021/12/14 06:13:40;;;;;;;11.38;9.93;;;;;;;9.56;59.66;102214.33;1334963;106;21145;-57
2021/12/14 06:16:09;;;;;;;12.65;10.23;;;;;;;9.59;59.73;102209.16;1324868;108;21213;-54
2021/12/14 06:18:37;;;;;;;13.30;9.85;;;;;;;9.62;59.67;102211.75;1322743;107;21290;-55
2021/12/14 06:21:06;;;;;;;13.35;10.85;;;;;;;9.64;59.52;102213.09;1323892;107;21125;-55
2021/12/14 06:23:34;;;;;;;15.95;11.05;;;;;;;9.67;59.66;102214.38;1304903;108;21668;-54
2021/12/14 06:26:05;;;;;;;11.63;9.68;;;;;;;9.72;59.73;102205.77;1281973;111;21718;-56
2021/12/14 06:28:32;;;;;;;13.93;10.50;;;;;;;9.78;59.63;102199.72;1279405;111;21928;-56
2021/12/14 06:31:01;;;;;;;11.60;9.20;;;;;;;9.79;59.51;102206.22;1272079;111;21217;-55
2021/12/14 06:33:32;;;;;;;12.40;10.43;;;;;;;9.75;59.24;102197.97;1291054;110;21214;-55
2021/12/14 06:36:01;;;;;;;11.10;9.30;;;;;;;9.70;59.41;102194.50;1281234;111;21662;-55
2021/12/14 06:38:32;;;;;;;12.23;9.70;;;;;;;9.70;59.25;102204.89;1287476;110;21203;-54
2021/12/14 06:41:12;;;;;;;10.88;9.10;;;;;;;9.66;58.88;102210.94;1303728;109;21123;-55
2021/12/14 06:43:54;;;;;;;10.43;8.48;;;;;;;9.64;59.23;102207.44;1342319;106;21637;-55
2021/12/14 06:46:25;;;;;;;11.83;9.33;;;;;;;9.68;59.25;102221.34;1341353;106;21146;-55
2021/12/14 06:49:13;;;;;;;10.78;9.30;;;;;;;9.70;58.87;102212.70;1311089;108;21671;-55
2021/12/14 06:51:46;;;;;;;11.65;9.33;;;;;;;9.72;58.97;102220.06;1316238;108;21167;-54
2021/12/14 06:54:19;;;;;;;13.35;10.25;;;;;;;9.74;58.79;102219.64;1286504;109;21134;-55
2021/12/14 06:56:55;;;;;;;11.73;8.93;;;;;;;9.77;58.73;102222.23;1288330;110;21187;-55
2021/12/14 06:59:25;;;;;;;9.88;8.55;;;;;;;9.77;58.71;102227.44;1290248;107;21282;-55
2021/12/14 07:02:00;;;;;;;10.88;8.88;;;;;;;9.80;58.91;102230.48;1326316;107;21172;-55
2021/12/14 07:04:35;;;;;;;10.13;8.70;;;;;;;9.85;58.99;102236.56;1352724;104;21092;-54
2021/12/14 07:07:06;;;;;;;11.28;9.58;;;;;;;9.89;58.78;102234.88;1388054;97;21231;-54
2021/12/14 07:09:50;;;;;;;11.80;9.28;;;;;;;9.92;58.73;102238.34;1450571;98;21131;-54
2021/12/14 07:12:26;;;;;;;14.18;8.90;;;;;;;9.92;58.51;102242.66;1471115;96;21712;-54
2021/12/14 07:15:02;;;;;;;11.43;9.73;;;;;;;9.91;58.67;102234.45;1469107;96;21138;-54
2021/12/14 07:17:41;;;;;;;11.45;9.23;;;;;;;9.88;58.44;102237.02;1470003;96;21606;-54
2021/12/14 07:20:29;;;;;;;10.58;8.63;;;;;;;9.83;58.49;102227.47;1449798;98;21146;-55
2021/12/14 07:23:06;;;;;;;10.63;8.48;;;;;;;9.84;58.84;102240.92;1454472;97;21129;-54
2021/12/14 07:25:40;;;;;;;11.93;9.80;;;;;;;9.89;58.71;102241.38;1469969;96;21158;-54
2021/12/14 07:28:12;;;;;;;13.08;9.18;;;;;;;9.93;58.51;102247.02;1466670;97;21115;-57
2021/12/14 07:30:53;;;;;;;11.12;9.03;;;;;;;9.98;58.46;102251.79;1451283;94;21171;-54
2021/12/14 07:33:31;;;;;;;15.80;10.20;;;;;;;10.00;58.37;102255.27;1449656;97;21108;-54
2021/12/14 07:36:11;;;;;;;10.15;8.48;;;;;;;10.00;58.27;102256.56;1453766;97;21151;-55
2021/12/14 07:38:46;;;;;;;13.22;9.10;;;;;;;10.01;58.43;102260.92;1461522;94;21159;-54
2021/12/14 07:41:32;;;;;;;9.78;8.70;;;;;;;10.04;58.33;102264.81;1489409;94;21109;-51
2021/12/14 07:44:06;;;;;;;14.10;9.70;;;;;;;10.07;57.95;102264.84;1497648;95;21223;-53
2021/12/14 07:47:00;;;;;;;12.07;9.63;;;;;;;10.05;58.00;102268.75;1483910;95;21635;-53
2021/12/14 07:49:44;;;;;;;11.38;9.75;;;;;;;10.06;58.10;102273.50;1480678;96;21213;-52
2021/12/14 07:52:18;;;;;;;10.58;8.43;;;;;;;10.02;57.93;102263.94;1422959;100;21137;-51
2021/12/14 07:54:49;;;;;;;11.57;9.13;;;;;;;9.96;57.97;102259.59;1410202;101;21655;-53
2021/12/14 07:57:26;;;;;;;11.30;8.65;;;;;;;9.95;58.06;102264.37;1404733;100;21602;-52
2021/12/14 08:00:17;;;;;;;9.78;8.25;;;;;;;9.91;58.01;102263.05;1409126;100;21142;-53
2021/12/14 08:02:47;;;;;;;10.72;9.13;;;;;;;9.86;58.05;102261.72;1457873;96;21576;-52
2021/12/14 08:05:30;;;;;;;14.47;9.60;;;;;;;9.85;57.93;102259.54;1414393;99;21159;-52
2021/12/14 08:13:28;;;;;;;10.03;8.25;;;;;;;9.84;58.20;102253.91;1333711;106;21766;-54
2021/12/14 08:15:58;;;;;;;10.13;7.62;;;;;;;9.87;58.22;102256.09;1315475;107;21691;-55
2021/12/14 08:18:36;;;;;;;12.18;8.80;;;;;;;9.89;58.23;102247.87;1325215;106;21174;-55
2021/12/14 08:21:15;;;;;;;10.63;8.43;;;;;;;9.91;58.01;102247.45;1318456;107;21186;-54
2021/12/14 08:24:01;;;;;;;9.93;8.20;;;;;;;9.93;58.01;102248.32;1305065;108;21745;-54
2021/12/14 08:26:47;;;;;;;10.03;8.35;;;;;;;9.94;58.03;102245.72;1314419;108;21441;-53
2021/12/14 08:29:20;;;;;;;11.18;8.55;;;;;;;9.96;57.62;102249.61;1327022;104;21647;-53
2021/12/14 08:32:04;;;;;;;9.53;7.50;;;;;;;9.87;57.64;102248.30;1385325;102;21173;-53
2021/12/14 08:34:34;;;;;;;10.75;7.45;;;;;;;9.85;57.78;102237.86;1394323;102;21688;-53
2021/12/14 08:37:09;;;;;;;10.82;7.92;;;;;;;9.83;57.76;102227.89;1387272;102;21161;-53
2021/12/14 08:39:44;;;;;;;8.23;7.33;;;;;;;9.81;57.84;102229.19;1354280;105;21153;-54
2021/12/14 08:42:18;;;;;;;8.83;7.50;;;;;;;9.84;57.82;102224.02;1320866;107;21245;-53
2021/12/14 08:44:54;;;;;;;9.68;8.33;;;;;;;9.87;57.88;102217.94;1305375;109;21676;-52
2021/12/14 08:47:32;;;;;;;8.98;7.85;;;;;;;9.88;57.87;102211.02;1286892;109;21285;-54
2021/12/14 08:50:02;;;;;;;10.03;8.30;;;;;;;9.91;57.56;102197.62;1311054;103;21248;-54
2021/12/14 08:52:29;;;;;;;8.68;7.42;;;;;;;9.86;57.47;102188.92;1354100;104;21173;-53
2021/12/14 08:54:58;;;;;;;9.85;7.78;;;;;;;9.86;57.69;102192.82;1340539;104;21395;-53
2021/12/14 08:57:29;;;;;;;10.50;7.90;;;;;;;9.82;57.33;102195.84;1351774;104;21688;-53
2021/12/14 09:00:01;;;;;;;10.18;8.13;;;;;;;9.79;57.71;102186.72;1349542;105;21178;-54
2021/12/14 09:02:31;;;;;;;10.50;7.70;;;;;;;9.83;58.11;102190.19;1353410;104;21187;-54
2021/12/14 09:05:12;;;;;;;8.53;7.50;;;;;;;9.92;57.96;102181.56;1372772;102;21229;-54
2021/12/14 09:07:39;;;;;;;8.23;7.07;;;;;;;10.01;57.72;102182.48;1355237;102;21266;-55
2021/12/14 09:10:10;;;;;;;8.53;6.37;;;;;;;10.00;57.57;102175.53;1375760;102;21195;-54
2021/12/14 09:12:40;;;;;;;9.45;6.65;;;;;;;9.99;57.60;102171.63;1383347;102;21164;-54
2021/12/14 09:15:20;;;;;;;7.25;6.30;;;;;;;10.01;57.75;102169.48;1377091;102;21173;-54
2021/12/14 09:17:48;;;;;;;7.37;6.42;;;;;;;9.99;57.50;102166.01;1384695;102;21195;-53
2021/12/14 09:20:20;;;;;;;7.33;6.12;;;;;;;9.98;57.53;102177.68;1398359;102;21648;-54
2021/12/14 09:22:50;;;;;;;7.80;6.10;;;;;;;10.03;57.56;102177.28;1406446;100;21177;-54
2021/12/14 09:25:20;;;;;;;7.55;5.45;;;;;;;10.06;57.11;102172.07;1396516;102;21134;-54
2021/12/14 09:27:46;;;;;;;9.85;6.67;;;;;;;10.08;56.97;102176.84;1400513;100;21095;-53
2021/12/14 09:30:16;;;;;;;8.23;6.12;;;;;;;10.12;57.04;102175.59;1422301;100;21170;-54
2021/12/14 09:32:42;;;;;;;8.45;6.17;;;;;;;10.19;56.68;102175.19;1408539;101;21545;-53
2021/12/14 09:35:16;;;;;;;7.87;6.55;;;;;;;10.22;56.47;102164.80;1424534;100;21147;-53
2021/12/14 09:37:46;;;;;;;7.50;6.37;;;;;;;10.24;56.56;102167.81;1464577;97;21197;-54
2021/12/14 09:40:18;;;;;;;6.87;6.15;;;;;;;10.26;56.40;102159.58;1455500;98;21143;-54
2021/12/14 09:42:45;;;;;;;7.47;6.50;;;;;;;10.21;56.39;102157.42;1449637;98;21090;-53
2021/12/14 09:45:17;;;;;;;7.03;5.80;;;;;;;10.18;56.43;102161.77;1464697;98;21632;-54
2021/12/14 09:47:43;;;;;;;7.20;5.53;;;;;;;10.19;56.39;102159.58;1423251;99;21114;-54
2021/12/14 09:50:15;;;;;;;5.83;5.17;;;;;;;10.18;56.50;102166.96;1420692;99;21167;-53
2021/12/14 09:52:43;;;;;;;;;;;;;;;10.19;56.43;102160.45;1378652;102;21071;-53
2021/12/14 09:55:14;;;;;;;7.60;5.80;;;;;;;10.17;55.79;102156.11;1384914;102;20229;-53
2021/12/14 09:57:45;;;;;;;;;;;;;;;10.10;55.91;102157.81;1326884;107;21157;-52
2021/12/14 10:00:25;;;;;;;5.78;4.97;;;;;;;10.07;55.99;102163.00;1323089;107;20219;-52
2021/12/14 10:02:53;;;;;;;7.78;4.78;;;;;;;10.04;55.87;102167.30;1323715;106;21167;-52
2021/12/14 10:05:43;;;;;;;6.55;4.62;;;;;;;10.05;55.97;102167.75;1387263;101;21102;-52
2021/12/14 10:08:16;;;;;;;;;;;;;;;10.08;56.17;102170.34;1438396;97;21173;-52
2021/12/14 10:10:59;;;;;;;;;;;;;;;10.07;56.08;102166.89;1434229;98;20430;-53
2021/12/14 10:13:23;;;;;;;6.83;5.25;;;;;;;10.11;56.40;102173.88;1445102;95;20139;-52
2021/12/14 10:15:53;;;;;;;6.05;5.30;;;;;;;10.16;56.08;102168.69;1477246;95;21088;-52
2021/12/14 10:18:31;;;;;;;7.03;5.55;;;;;;;10.17;55.77;102173.02;1475208;95;21170;-53
2021/12/14 10:21:17;;;;;;;6.65;5.33;;;;;;;10.15;55.86;102170.84;1548897;91;21577;-54
2021/12/14 10:23:47;;;;;;;6.70;4.97;;;;;;;10.11;56.05;102173.00;1530581;91;21652;-52
2021/12/14 10:26:14;;;;;;;7.30;5.33;;;;;;;10.08;55.82;102179.02;1519771;93;21150;-52
2021/12/14 10:28:45;;;;;;;6.35;5.25;;;;;;;10.06;56.16;102173.38;1521447;91;21156;-52
2021/12/14 10:31:18;;;;;;;6.35;5.17;;;;;;;10.07;56.14;102172.52;1546739;91;21641;-52
2021/12/14 10:33:45;;;;;;;6.05;5.37;;;;;;;10.06;56.02;102164.27;1560849;90;21580;-52
2021/12/14 10:39:21;;;;;;;9.03;5.55;;;;;;;10.04;56.07;102169.47;1505617;94;21120;-53
2021/12/14 10:44:22;;;;;;;7.80;5.97;;;;;;;10.00;56.49;102162.95;1486384;95;21157;-53
2021/12/14 10:46:51;;;;;;;8.93;5.65;;;;;;;9.98;56.61;102158.18;1497371;95;21099;-52
2021/12/14 10:49:20;;;;;;;7.55;5.70;;;;;;;9.97;56.65;102159.06;1481012;95;21659;-53
2021/12/14 10:51:49;;;;;;;6.80;5.85;;;;;;;9.97;56.66;102161.66;1546823;92;21111;-53
2021/12/14 10:54:15;;;;;;;6.80;5.42;;;;;;;10.00;56.38;102149.53;1566762;89;21034;-54
2021/12/14 10:56:50;;;;;;;7.30;6.60;;;;;;;10.03;56.42;102161.25;1603803;89;21048;-52
2021/12/14 10:59:19;;;;;;;7.78;5.42;;;;;;;10.06;56.55;102165.14;1550342;91;21076;-52
2021/12/14 11:01:50;;;;;;;5.62;4.83;;;;;;;10.06;56.55;102167.74;1551322;91;21057;-52
2021/12/14 11:04:23;;;;;;;5.42;4.90;;;;;;;10.08;56.25;102165.14;1570709;90;21114;-53
2021/12/14 11:06:50;;;;;;;6.97;5.12;;;;;;;10.07;56.18;102163.42;1477316;95;21134;-52
2021/12/14 11:09:47;;;;;;;6.45;5.40;;;;;;;10.02;56.30;102169.02;1484041;95;21099;-53
2021/12/14 11:12:24;;;;;;;6.45;5.65;;;;;;;10.06;56.26;102170.34;1485899;94;22305;-53
2021/12/14 11:14:57;;;;;;;7.22;5.62;;;;;;;10.08;55.95;102170.34;1415101;100;21748;-53
2021/12/14 11:20:23;;;;;;;6.53;5.37;;;;;;;10.05;56.48;102178.16;1400848;101;21639;-52
2021/12/14 11:22:54;;;;;;;5.85;5.05;;;;;;;10.02;56.71;102178.13;1402623;100;21144;-52
2021/12/14 11:25:24;;;;;;;7.85;6.80;;;;;;;9.99;56.62;102176.83;1380977;102;21125;-52
2021/12/14 11:28:07;;;;;;;6.25;5.60;;;;;;;9.92;56.65;102176.36;1376028;103;21222;-53
2021/12/14 11:30:45;;;;;;;7.37;5.65;;;;;;;9.90;56.83;102178.09;1379917;101;21674;-53
2021/12/14 11:33:29;;;;;;;6.75;6.05;;;;;;;9.87;56.94;102180.70;1358337;103;21147;-54
2021/12/14 11:36:10;;;;;;;7.20;6.50;;;;;;;9.83;57.18;102175.47;1362593;103;21287;-53
2021/12/14 11:38:53;;;;;;;8.35;6.45;;;;;;;9.80;57.18;102174.17;1362381;103;21204;-53
2021/12/14 11:41:34;;;;;;;;;;;;;;;9.76;57.36;102169.83;1359828;103;21159;-53
2021/12/14 11:44:09;;;;;;;5.85;5.05;;;;;;;9.79;57.23;102167.22;1366290;103;20436;-52
2021/12/14 11:46:56;;;;;;;7.08;4.95;;;;;;;9.82;56.93;102171.58;1366345;103;21152;-53
2021/12/14 11:49:28;;;;;;;5.85;5.25;;;;;;;9.81;56.88;102162.90;1365286;103;21115;-54
2021/12/14 11:51:54;;;;;;;6.95;5.08;;;;;;;9.81;56.92;102159.00;1373134;103;21182;-53
2021/12/14 11:54:21;;;;;;;5.22;4.53;;;;;;;9.80;57.03;102157.28;1376416;102;21266;-52
2021/12/14 11:56:49;;;;;;;5.47;4.87;;;;;;;9.80;57.01;102146.88;1375379;103;21614;-52
2021/12/14 11:59:17;;;;;;;5.45;4.85;;;;;;;9.79;57.01;102147.73;1382394;103;21857;-52
2021/12/14 12:01:52;;;;;;;6.53;4.92;;;;;;;9.75;57.13;102148.58;1373399;102;21211;-53
2021/12/14 12:04:24;;;;;;;5.83;4.90;;;;;;;9.75;57.20;102152.48;1378465;103;21156;-53
2021/12/14 12:09:35;;;;;;;5.22;4.72;;;;;;;9.73;57.15;102156.80;1401033;102;21140;-54
2021/12/14 12:12:07;;;;;;;5.40;4.37;;;;;;;9.73;57.34;102163.30;1424269;99;21114;-52
2021/12/14 12:14:42;;;;;;;4.95;4.15;;;;;;;9.73;57.00;102154.20;1438864;97;21179;-53
2021/12/14 12:17:27;;;;;;;5.05;4.55;;;;;;;9.73;56.85;102155.50;1403364;101;21630;-52
2021/12/14 12:20:27;;;;;;;4.42;4.03;;;;;;;9.70;56.70;102151.61;1412930;101;21706;-53
2021/12/14 12:23:03;;;;;;;5.25;4.10;;;;;;;9.68;56.64;102145.55;1502543;93;21196;-53
2021/12/14 12:26:00;;;;;;;7.22;5.17;;;;;;;9.67;56.61;102148.11;1539380;92;21252;-53
2021/12/14 12:28:40;;;;;;;5.83;5.22;;;;;;;9.63;56.99;102144.64;1490053;94;21194;-53
2021/12/14 12:31:16;;;;;;;6.55;5.17;;;;;;;9.62;57.09;102155.87;1581776;89;21143;-54
2021/12/14 12:33:57;;;;;;;6.05;5.45;;;;;;;9.59;57.46;102154.58;1560133;91;21080;-53